メインページ
METAR-TAF:

METAR-TAF

空港 :

パース空港

パース, オーストラリア

緯度: 31-56S, 経度: 115-57E, 海抜: 20m

現時点の気象観測

当レポートは16分前の10:00(UTC)に作成
の風 6kt
気温 15°C
湿度 59%
気圧 1024 hPa
視程10km以上
1,500メートル以下は雲なし、積乱雲なし

METAR: YPPH 181000Z 09006KT CAVOK 15/07 Q1024 NOSIG

時間: 18:16 (10:16 UTC)

予報

当レポートは5時間6分前の05:10(UTC)に作成
予報は18日の 06時(UTC)から 19日の 12時(UTC)まで有効
東/北東の風 10kt
視程10km以上
1,500メートル以下は雲なし、積乱雲なし

TAF: YPPH 180510Z 1806/1912 06010KT CAVOK

4,000以上の空港の気象観測と天気予報(METAR報とTAF報)

利用可能な観測所は地図上に黄色い丸と赤い丸で示す。

丸の上にカーソルを重ねると観測所名を参照できる。

次にクリックすると気象観測と天気予報を参照できる。

マップの切り替え:黒色「×」印の緑ボタンをクリックして拡大、「-」印の緑ボタンをクリックして縮小、緑色の三角印をクリックして隣りの地図に切り替え


METAR-TAF: